Time;durP1;ratioP1;P1;durP2;ratioP2;P2;SDS_P1;SDS_P2;PMS_P1;PMS_P2;Temp;Humidity;BMP_temperature;BMP_pressure;BME280_temperature;BME280_humidity;BME280_pressure;Samples;Min_cycle;Max_cycle;Signal;HPM_P1;HPM_P2
2024/02/21 00:01:01;;;;;;;2.60;1.23;;;10.00;99.90;;;;;;4986719;28;20615;-91
2024/02/21 00:03:27;;;;;;;0.67;0.67;;;10.10;99.90;;;;;;5009385;28;20233;-91
2024/02/21 00:05:53;;;;;;;0.77;0.77;;;10.20;99.90;;;;;;4998824;28;20261;-92
2024/02/21 00:08:19;;;;;;;0.77;0.77;;;10.10;99.90;;;;;;5024184;28;20248;-91
2024/02/21 00:10:45;;;;;;;2.17;1.10;;;10.10;99.90;;;;;;5022927;28;20303;-92
2024/02/21 00:13:10;;;;;;;0.60;0.60;;;10.00;99.90;;;;;;4992031;28;20981;-92
2024/02/21 00:15:37;;;;;;;0.90;0.90;;;10.00;99.90;;;;;;4987758;28;20695;-90
2024/02/21 00:18:03;;;;;;;0.60;0.60;;;10.00;99.90;;;;;;4996491;28;20841;-92
2024/02/21 00:20:30;;;;;;;1.57;1.30;;;10.10;99.90;;;;;;4980185;28;20207;-92
2024/02/21 00:22:56;;;;;;;6.90;1.33;;;10.00;99.90;;;;;;4994256;28;20726;-91
2024/02/21 00:25:21;;;;;;;0.30;0.30;;;10.10;99.90;;;;;;4993728;28;20238;-90
2024/02/21 00:27:47;;;;;;;2.33;1.43;;;10.10;99.90;;;;;;5020166;28;20313;-91
2024/02/21 00:30:13;;;;;;;2.83;1.77;;;10.10;99.90;;;;;;4980353;28;20689;-91
2024/02/21 00:32:39;;;;;;;0.30;0.30;;;10.00;99.90;;;;;;4997453;28;20214;-92
2024/02/21 00:35:05;;;;;;;1.50;1.33;;;10.10;99.90;;;;;;5002935;28;20281;-93
2024/02/21 00:37:31;;;;;;;0.57;0.57;;;10.20;99.90;;;;;;5024013;28;20222;-91
2024/02/21 00:39:57;;;;;;;2.20;0.37;;;10.00;99.90;;;;;;5001820;28;20234;-91
2024/02/21 00:42:25;;;;;;;6.13;1.80;;;10.00;99.90;;;;;;4995757;28;20238;-91
2024/02/21 00:44:51;;;;;;;1.17;1.07;;;10.00;99.90;;;;;;4981718;28;20195;-91
2024/02/21 00:47:17;;;;;;;0.50;0.50;;;10.00;99.90;;;;;;4999517;28;20217;-91
2024/02/21 00:49:43;;;;;;;1.10;0.60;;;10.00;99.90;;;;;;5007565;28;20224;-92
2024/02/21 00:52:09;;;;;;;1.63;1.53;;;10.20;99.90;;;;;;5025069;28;20237;-91
2024/02/21 00:54:34;;;;;;;2.73;1.07;;;10.20;99.90;;;;;;5020377;28;20261;-91
2024/02/21 00:57:00;;;;;;;0.60;0.50;;;10.20;99.90;;;;;;5006996;28;20202;-91
2024/02/21 00:59:26;;;;;;;1.93;1.83;;;10.20;99.90;;;;;;5014122;28;20776;-91
2024/02/21 01:01:52;;;;;;;1.30;0.70;;;10.10;99.90;;;;;;5003982;28;20287;-92
2024/02/21 01:04:17;;;;;;;4.23;1.97;;;10.10;99.90;;;;;;5022693;28;20233;-91
2024/02/21 01:06:44;;;;;;;2.10;2.00;;;10.20;99.90;;;;;;5016795;28;20234;-91
2024/02/21 01:09:12;;;;;;;0.40;0.40;;;10.10;99.90;;;;;;4998548;28;20730;-91
2024/02/21 01:11:38;;;;;;;3.13;1.37;;;10.10;99.90;;;;;;4998071;28;20285;-91
2024/02/21 01:14:04;;;;;;;7.20;0.90;;;10.10;99.90;;;;;;5014244;28;20313;-91
2024/02/21 01:16:30;;;;;;;0.20;0.20;;;10.20;99.90;;;;;;5014136;28;20214;-91
2024/02/21 01:18:56;;;;;;;0.80;0.80;;;10.00;99.90;;;;;;5014966;28;20214;-91
2024/02/21 01:21:21;;;;;;;9.13;0.93;;;10.00;99.90;;;;;;5000089;28;20222;-91
2024/02/21 01:23:47;;;;;;;1.63;0.87;;;10.10;99.90;;;;;;5006137;28;20290;-91
2024/02/21 01:26:15;;;;;;;2.30;1.40;;;10.00;99.90;;;;;;5008997;28;20316;-91
2024/02/21 01:28:41;;;;;;;0.93;0.83;;;10.00;99.90;;;;;;4999407;28;20738;-91
2024/02/21 01:31:07;;;;;;;0.47;0.47;;;10.00;99.90;;;;;;4986651;28;20235;-91
2024/02/21 01:33:34;;;;;;;8.53;1.70;;;10.00;99.90;;;;;;4984595;28;20492;-91
2024/02/21 01:36:04;;;;;;;7.63;1.63;;;10.20;99.90;;;;;;5014442;28;20292;-91
2024/02/21 01:38:29;;;;;;;1.83;1.23;;;10.10;99.90;;;;;;5021209;28;20203;-91
2024/02/21 01:40:56;;;;;;;9.63;1.73;;;9.90;99.90;;;;;;5005116;28;20233;-91
2024/02/21 01:43:22;;;;;;;6.10;1.37;;;10.20;99.90;;;;;;5002170;28;20222;-91
2024/02/21 01:45:54;;;;;;;2.17;1.13;;;9.90;99.90;;;;;;5021288;28;20272;-92
2024/02/21 01:48:22;;;;;;;0.57;0.57;;;10.00;99.90;;;;;;5026006;28;20272;-92
2024/02/21 01:50:49;;;;;;;0.50;0.50;;;10.00;99.90;;;;;;5007048;28;20614;-92
2024/02/21 01:53:20;;;;;;;0.70;0.70;;;10.00;99.90;;;;;;5005172;28;20227;-91
2024/02/21 01:55:47;;;;;;;0.40;0.40;;;10.10;99.90;;;;;;5021668;28;20218;-92
2024/02/21 01:58:17;;;;;;;4.80;2.17;;;10.10;99.90;;;;;;5022878;28;20222;-91
2024/02/21 02:00:43;;;;;;;3.83;0.40;;;10.10;99.90;;;;;;5005378;28;20223;-91
2024/02/21 02:03:19;;;;;;;2.23;1.17;;;10.10;99.90;;;;;;5002798;28;20711;-91
2024/02/21 02:05:50;;;;;;;1.90;1.20;;;10.00;99.90;;;;;;5014559;28;20277;-91
2024/02/21 02:08:22;;;;;;;1.13;0.77;;;10.00;99.90;;;;;;5025909;28;20194;-91
2024/02/21 02:10:48;;;;;;;0.90;0.90;;;10.10;99.90;;;;;;5006842;28;20283;-92
2024/02/21 02:13:14;;;;;;;2.47;1.47;;;10.10;99.90;;;;;;5021539;28;20239;-91
2024/02/21 02:15:47;;;;;;;0.67;0.40;;;10.10;99.90;;;;;;5001124;28;20241;-91
2024/02/21 02:18:14;;;;;;;0.23;0.23;;;10.10;99.90;;;;;;4999283;28;20253;-92
2024/02/21 02:20:40;;;;;;;0.63;0.63;;;9.90;99.90;;;;;;5005556;28;20230;-91
2024/02/21 02:23:24;;;;;;;8.27;2.20;;;10.10;99.90;;;;;;5007711;28;20278;-91
2024/02/21 02:25:53;;;;;;;0.80;0.63;;;10.00;99.90;;;;;;5023401;28;20226;-91
2024/02/21 02:28:19;;;;;;;3.70;1.60;;;10.00;99.90;;;;;;5014927;28;20845;-92
2024/02/21 02:30:47;;;;;;;3.87;1.50;;;10.10;99.90;;;;;;5025789;28;20569;-91
2024/02/21 02:33:13;;;;;;;1.60;1.03;;;10.00;99.90;;;;;;4999512;28;20270;-91
2024/02/21 02:35:39;;;;;;;0.53;0.53;;;10.10;99.90;;;;;;5010666;28;20539;-91
2024/02/21 02:38:05;;;;;;;0.77;0.57;;;10.00;99.90;;;;;;5008849;28;20246;-91
2024/02/21 02:40:34;;;;;;;0.77;0.53;;;10.10;99.90;;;;;;5002635;28;20237;-91
2024/02/21 02:43:01;;;;;;;2.90;0.90;;;10.00;99.90;;;;;;5017118;28;20218;-92
2024/02/21 02:45:27;;;;;;;0.67;0.67;;;10.00;99.90;;;;;;5002798;28;20245;-91
2024/02/21 02:47:59;;;;;;;14.17;1.80;;;9.80;99.90;;;;;;5002908;28;20704;-91
2024/02/21 02:50:26;;;;;;;8.23;1.73;;;9.90;99.90;;;;;;5025104;28;20278;-91
2024/02/21 02:52:54;;;;;;;0.93;0.83;;;9.80;99.90;;;;;;5012851;28;20772;-90
2024/02/21 02:55:20;;;;;;;2.20;0.83;;;9.90;99.90;;;;;;5022566;28;20381;-92
2024/02/21 02:57:46;;;;;;;1.13;0.73;;;9.80;99.90;;;;;;5024414;28;20230;-90
2024/02/21 03:00:13;;;;;;;7.80;1.10;;;9.80;99.90;;;;;;5017057;28;20751;-91
2024/02/21 03:02:42;;;;;;;2.03;1.33;;;9.70;99.90;;;;;;5009414;28;20750;-91
2024/02/21 03:05:16;;;;;;;0.83;0.60;;;9.80;99.90;;;;;;5008609;28;20222;-91
2024/02/21 03:07:43;;;;;;;1.50;1.40;;;9.80;99.90;;;;;;5003421;28;20227;-91
2024/02/21 03:10:09;;;;;;;1.17;1.13;;;9.80;99.90;;;;;;4997718;28;20256;-92
2024/02/21 03:12:35;;;;;;;5.73;1.90;;;9.90;99.90;;;;;;5024433;28;20215;-92
2024/02/21 03:15:01;;;;;;;1.43;1.33;;;9.90;99.90;;;;;;5026175;28;20191;-91
2024/02/21 03:17:29;;;;;;;0.83;0.40;;;9.80;99.90;;;;;;5008162;28;20235;-92
2024/02/21 03:19:55;;;;;;;3.07;0.97;;;9.80;99.90;;;;;;5008638;28;20226;-91
2024/02/21 03:22:22;;;;;;;1.17;1.13;;;9.90;99.90;;;;;;5008066;28;20230;-91
2024/02/21 03:24:48;;;;;;;15.73;1.37;;;9.80;99.90;;;;;;5020841;28;20233;-92
2024/02/21 03:27:14;;;;;;;6.30;1.70;;;10.00;99.90;;;;;;5000338;28;20214;-93
2024/02/21 03:29:39;;;;;;;8.37;1.57;;;9.90;99.90;;;;;;5006921;28;20260;-92
2024/02/21 03:32:05;;;;;;;1.60;1.37;;;9.80;99.90;;;;;;5010330;28;20721;-92
2024/02/21 03:34:31;;;;;;;1.23;1.23;;;9.90;99.90;;;;;;5024315;28;20833;-91
2024/02/21 03:36:58;;;;;;;6.03;1.17;;;10.00;99.90;;;;;;5006671;28;20235;-91
2024/02/21 03:39:25;;;;;;;3.30;0.87;;;10.00;99.90;;;;;;5025363;28;20227;-90
2024/02/21 03:41:51;;;;;;;1.00;0.60;;;10.10;99.90;;;;;;5022752;28;20272;-92
2024/02/21 03:44:17;;;;;;;4.43;1.60;;;10.00;99.90;;;;;;5000272;28;20199;-92
2024/02/21 03:46:45;;;;;;;1.27;1.17;;;10.00;99.90;;;;;;4999760;28;20226;-91
2024/02/21 03:49:11;;;;;;;6.23;1.10;;;9.90;99.90;;;;;;5022513;28;20250;-91
2024/02/21 03:51:37;;;;;;;3.20;1.80;;;9.90;99.90;;;;;;5007841;28;20233;-92
2024/02/21 03:54:03;;;;;;;7.47;0.97;;;10.10;99.90;;;;;;5025756;28;20243;-91
2024/02/21 03:56:28;;;;;;;5.40;1.40;;;10.00;99.90;;;;;;5007361;28;20200;-90
2024/02/21 03:58:55;;;;;;;2.20;0.83;;;10.00;99.90;;;;;;5000121;28;20312;-91
2024/02/21 04:01:21;;;;;;;0.47;0.47;;;9.90;99.90;;;;;;5020361;28;20218;-91
2024/02/21 04:03:47;;;;;;;3.23;0.80;;;10.00;99.90;;;;;;4995215;28;20237;-91
2024/02/21 04:06:12;;;;;;;0.80;0.80;;;9.90;99.90;;;;;;4984579;28;20234;-91
2024/02/21 04:08:39;;;;;;;2.73;0.97;;;9.90;99.90;;;;;;5000422;28;20203;-92
2024/02/21 04:11:05;;;;;;;10.27;1.47;;;9.90;99.90;;;;;;4995424;28;20262;-92
2024/02/21 04:13:30;;;;;;;2.13;1.77;;;10.10;99.90;;;;;;4994286;28;20714;-91
2024/02/21 04:15:56;;;;;;;11.67;1.37;;;10.00;99.90;;;;;;5021923;28;20695;-91
2024/02/21 04:18:22;;;;;;;1.03;0.93;;;10.00;99.90;;;;;;5010891;28;20231;-91
2024/02/21 04:20:48;;;;;;;8.63;2.17;;;10.10;99.90;;;;;;5008174;28;20210;-91
2024/02/21 04:23:14;;;;;;;3.23;0.93;;;10.00;99.90;;;;;;5005976;28;20213;-91
2024/02/21 04:25:40;;;;;;;1.27;0.87;;;10.10;99.90;;;;;;5017570;28;20246;-92
2024/02/21 04:28:06;;;;;;;10.03;1.83;;;10.10;99.90;;;;;;5014281;28;20218;-92
2024/02/21 04:30:32;;;;;;;11.53;1.13;;;10.10;99.90;;;;;;5011187;28;20227;-92
2024/02/21 04:32:58;;;;;;;0.53;0.53;;;10.00;99.90;;;;;;5007329;28;20315;-91
2024/02/21 04:35:24;;;;;;;3.73;0.60;;;10.00;99.90;;;;;;5019759;28;20210;-91
2024/02/21 04:37:50;;;;;;;2.57;1.47;;;10.00;99.90;;;;;;5003214;28;20562;-91
2024/02/21 04:40:16;;;;;;;0.93;0.93;;;10.10;99.90;;;;;;5029780;28;20687;-92
2024/02/21 04:42:44;;;;;;;2.50;1.53;;;10.00;99.90;;;;;;5008723;28;20231;-92
2024/02/21 04:45:10;;;;;;;1.00;0.93;;;10.00;99.90;;;;;;4981663;28;20223;-91
2024/02/21 04:47:36;;;;;;;3.10;1.30;;;10.00;99.90;;;;;;4980957;28;20202;-91
2024/02/21 04:50:01;;;;;;;0.73;0.73;;;10.10;99.90;;;;;;5015704;28;20293;-91
2024/02/21 04:52:30;;;;;;;0.50;0.50;;;10.00;99.90;;;;;;5003161;28;20230;-91
2024/02/21 04:54:56;;;;;;;1.93;0.93;;;10.00;99.90;;;;;;5005606;28;20231;-91
2024/02/21 04:57:22;;;;;;;3.37;0.53;;;10.00;99.90;;;;;;4978440;28;20236;-91
2024/02/21 04:59:47;;;;;;;0.30;0.30;;;10.10;99.90;;;;;;4980326;28;20234;-91
2024/02/21 05:02:14;;;;;;;1.20;1.20;;;10.10;99.90;;;;;;5015870;28;20563;-91
2024/02/21 05:04:41;;;;;;;1.67;1.57;;;10.10;99.90;;;;;;5021279;28;20458;-91
2024/02/21 05:07:07;;;;;;;1.87;0.90;;;10.10;99.90;;;;;;5006304;28;20234;-91
2024/02/21 05:09:33;;;;;;;12.23;1.67;;;9.90;99.90;;;;;;4982391;28;20679;-91
2024/02/21 05:11:59;;;;;;;1.47;1.37;;;9.90;99.90;;;;;;4981856;28;20290;-91
2024/02/21 05:14:26;;;;;;;1.30;1.27;;;9.90;99.90;;;;;;5021441;28;20305;-92
2024/02/21 05:16:53;;;;;;;1.13;0.90;;;9.90;99.90;;;;;;5008762;28;20231;-92
2024/02/21 05:19:18;;;;;;;3.47;0.93;;;10.00;99.90;;;;;;5004216;28;20735;-92
2024/02/21 05:21:45;;;;;;;0.93;0.83;;;9.90;99.90;;;;;;5016600;28;20226;-91
2024/02/21 05:24:11;;;;;;;8.40;2.53;;;9.80;99.90;;;;;;5009764;28;20683;-91
2024/02/21 05:26:37;;;;;;;5.93;1.07;;;9.90;99.90;;;;;;5021842;28;20585;-91
2024/02/21 05:29:03;;;;;;;7.00;2.33;;;9.90;99.90;;;;;;4974910;28;20300;-91
2024/02/21 05:31:51;;;;;;;3.70;1.43;;;9.80;99.90;;;;;;4997284;28;20223;-91
2024/02/21 05:34:18;;;;;;;1.10;1.07;;;9.70;99.90;;;;;;5028887;28;20258;-92
2024/02/21 05:36:44;;;;;;;2.73;0.97;;;9.80;99.90;;;;;;5014359;28;20230;-91
2024/02/21 05:39:10;;;;;;;1.60;1.50;;;9.70;99.90;;;;;;4995926;28;20245;-91
2024/02/21 05:41:37;;;;;;;1.80;1.03;;;9.80;99.90;;;;;;4995319;28;20210;-92
2024/02/21 05:44:03;;;;;;;1.10;0.87;;;9.80;99.90;;;;;;4997148;28;20687;-91
2024/02/21 05:46:30;;;;;;;10.57;1.77;;;9.90;99.90;;;;;;4997863;28;20583;-90
2024/02/21 05:48:56;;;;;;;1.63;1.53;;;9.80;99.90;;;;;;5002830;28;20761;-92
2024/02/21 05:51:22;;;;;;;4.33;1.43;;;10.00;99.90;;;;;;5005001;28;20242;-91
2024/02/21 05:53:48;;;;;;;3.33;0.70;;;9.90;99.90;;;;;;5007584;28;20222;-91
2024/02/21 05:56:15;;;;;;;16.57;1.43;;;9.90;99.90;;;;;;4982795;28;20293;-91
2024/02/21 05:58:41;;;;;;;3.30;2.97;;;9.90;99.90;;;;;;5009160;28;20280;-91
2024/02/21 06:01:07;;;;;;;7.57;1.90;;;10.00;99.90;;;;;;5007718;28;20261;-91
2024/02/21 06:03:34;;;;;;;4.40;2.30;;;9.90;99.90;;;;;;5002876;28;20310;-91
2024/02/21 06:06:00;;;;;;;2.77;0.73;;;9.80;99.90;;;;;;5003232;28;20203;-91
2024/02/21 06:08:26;;;;;;;3.60;1.73;;;9.80;99.90;;;;;;5019554;28;20547;-91
2024/02/21 06:10:54;;;;;;;0.40;0.40;;;10.00;99.90;;;;;;5001536;28;20227;-90
2024/02/21 06:13:24;;;;;;;3.57;1.87;;;9.90;99.90;;;;;;5001309;28;20301;-93
2024/02/21 06:15:50;;;;;;;1.87;1.13;;;9.90;99.90;;;;;;5017149;28;20313;-93
2024/02/21 06:18:20;;;;;;;0.97;0.97;;;9.90;99.90;;;;;;4997940;28;20578;-93
2024/02/21 06:20:46;;;;;;;0.90;0.90;;;10.00;99.90;;;;;;4995530;28;20227;-92
2024/02/21 06:23:16;;;;;;;4.83;1.20;;;9.90;99.90;;;;;;5022737;28;20526;-92
2024/02/21 06:25:43;;;;;;;7.53;1.43;;;9.80;99.90;;;;;;4998700;28;20226;-92
2024/02/21 06:28:09;;;;;;;2.00;1.37;;;9.80;99.90;;;;;;4984839;28;20319;-91
2024/02/21 06:30:39;;;;;;;1.10;1.03;;;9.90;99.90;;;;;;4984705;28;20230;-92
2024/02/21 06:33:07;;;;;;;2.47;2.37;;;9.90;99.90;;;;;;4996587;28;20236;-91
2024/02/21 06:35:34;;;;;;;2.17;1.43;;;9.80;99.90;;;;;;5022603;28;20206;-92
2024/02/21 06:38:00;;;;;;;10.20;1.23;;;10.00;99.90;;;;;;5001281;28;20728;-93
2024/02/21 06:40:26;;;;;;;1.80;1.27;;;9.90;99.90;;;;;;5015878;28;20286;-91
2024/02/21 06:42:51;;;;;;;2.73;1.40;;;9.90;99.90;;;;;;4987914;28;20317;-92
2024/02/21 06:45:17;;;;;;;0.50;0.50;;;10.10;99.90;;;;;;5013081;28;20233;-90
2024/02/21 06:47:43;;;;;;;16.93;1.93;;;9.90;99.90;;;;;;5002351;28;20210;-91
2024/02/21 06:50:10;;;;;;;3.30;1.30;;;10.10;99.90;;;;;;5019354;28;20198;-91
2024/02/21 06:52:40;;;;;;;1.80;1.43;;;10.00;99.90;;;;;;5035266;28;20226;-90
2024/02/21 06:55:06;;;;;;;1.13;1.03;;;10.00;99.90;;;;;;5003769;28;20222;-91
2024/02/21 06:57:32;;;;;;;1.17;1.17;;;9.90;99.90;;;;;;5004395;28;20218;-91
2024/02/21 07:00:00;;;;;;;7.57;0.83;;;10.00;99.90;;;;;;5009987;28;20202;-91
2024/02/21 07:02:25;;;;;;;10.40;1.13;;;9.80;99.90;;;;;;5004922;28;20210;-92
2024/02/21 07:04:51;;;;;;;10.73;1.50;;;9.80;99.90;;;;;;4995868;28;20218;-92
2024/02/21 07:07:17;;;;;;;14.37;1.80;;;9.90;99.90;;;;;;4993143;28;20235;-93
2024/02/21 07:09:43;;;;;;;5.30;1.30;;;9.90;99.90;;;;;;5002045;28;20241;-90
2024/02/21 07:12:09;;;;;;;3.73;1.90;;;10.00;99.90;;;;;;5002747;28;20984;-90
2024/02/21 07:14:36;;;;;;;5.27;3.47;;;9.90;99.90;;;;;;4995274;28;20325;-91
2024/02/21 07:17:03;;;;;;;8.53;0.90;;;9.90;99.90;;;;;;5010063;28;20218;-91
2024/02/21 07:19:29;;;;;;;2.87;2.27;;;9.90;99.90;;;;;;4992357;28;20318;-91
2024/02/21 07:21:55;;;;;;;0.90;0.90;;;10.00;99.90;;;;;;4987474;28;20650;-91
2024/02/21 07:24:20;;;;;;;1.33;1.20;;;9.90;99.90;;;;;;5016371;28;20229;-91
2024/02/21 07:26:47;;;;;;;1.53;1.37;;;9.90;99.90;;;;;;5006409;28;20221;-91
2024/02/21 07:29:13;;;;;;;1.20;0.90;;;10.00;99.90;;;;;;5004717;28;20230;-91
2024/02/21 07:31:48;;;;;;;2.53;2.20;;;10.00;99.90;;;;;;5005560;28;20276;-91
2024/02/21 07:34:14;;;;;;;2.50;2.30;;;9.90;99.90;;;;;;5010875;28;20726;-91
2024/02/21 07:36:42;;;;;;;1.17;1.07;;;10.10;99.90;;;;;;4987751;28;20729;-91
2024/02/21 07:39:08;;;;;;;4.60;3.00;;;9.90;99.90;;;;;;5006664;28;21314;-90
2024/02/21 07:41:34;;;;;;;1.03;0.77;;;10.10;99.90;;;;;;5002290;28;20238;-92
2024/02/21 07:44:00;;;;;;;1.30;1.20;;;9.80;99.90;;;;;;5036905;28;20226;-91
2024/02/21 07:46:26;;;;;;;4.60;3.07;;;10.00;99.90;;;;;;4997705;28;20571;-91
2024/02/21 07:48:52;;;;;;;2.70;1.97;;;9.90;99.90;;;;;;4998999;28;20211;-91
2024/02/21 07:51:19;;;;;;;4.83;1.37;;;10.10;99.90;;;;;;5003197;28;20231;-92
2024/02/21 07:53:46;;;;;;;4.57;2.37;;;10.00;99.90;;;;;;5004745;28;20338;-91
2024/02/21 07:56:15;;;;;;;4.30;1.00;;;9.90;99.90;;;;;;5003526;28;20599;-91
2024/02/21 07:58:42;;;;;;;22.70;2.57;;;10.00;99.90;;;;;;5013219;28;20280;-92
2024/02/21 08:01:08;;;;;;;7.30;2.00;;;10.00;99.90;;;;;;5007936;28;20195;-92
2024/02/21 08:03:34;;;;;;;1.47;1.37;;;10.00;99.90;;;;;;5013833;28;20230;-93
2024/02/21 08:06:03;;;;;;;2.43;1.13;;;9.90;99.90;;;;;;5000877;28;20219;-90
2024/02/21 08:08:30;;;;;;;1.93;1.80;;;10.00;99.90;;;;;;4987024;28;20226;-91
2024/02/21 08:10:55;;;;;;;7.60;1.70;;;10.00;99.90;;;;;;4996557;28;20983;-92
2024/02/21 08:13:21;;;;;;;5.60;2.27;;;10.20;99.90;;;;;;4996648;28;20312;-90
2024/02/21 08:15:47;;;;;;;3.10;1.50;;;10.00;99.90;;;;;;4997853;28;20209;-90
2024/02/21 08:18:13;;;;;;;1.27;1.23;;;10.20;99.90;;;;;;5001794;28;20226;-92
2024/02/21 08:20:46;;;;;;;4.33;2.50;;;10.00;99.90;;;;;;5007080;28;20741;-92
2024/02/21 08:23:11;;;;;;;1.37;1.27;;;10.10;99.90;;;;;;5013833;28;20592;-92
2024/02/21 08:25:37;;;;;;;8.13;1.60;;;10.00;99.90;;;;;;4995859;28;20319;-90
2024/02/21 08:28:05;;;;;;;5.73;3.43;;;10.20;99.90;;;;;;5022730;28;20241;-91
2024/02/21 08:30:31;;;;;;;3.67;1.20;;;10.00;99.90;;;;;;5027337;28;20226;-91
2024/02/21 08:32:57;;;;;;;2.47;2.30;;;10.20;99.90;;;;;;5018555;28;20225;-91
2024/02/21 08:35:22;;;;;;;1.87;1.77;;;10.20;99.90;;;;;;5002531;28;20245;-93
2024/02/21 08:37:51;;;;;;;1.30;1.20;;;10.20;99.90;;;;;;5006968;28;20300;-93
2024/02/21 08:40:21;;;;;;;3.93;1.60;;;10.10;99.90;;;;;;5014475;28;20198;-92
2024/02/21 08:42:48;;;;;;;2.33;2.13;;;10.10;99.90;;;;;;4995023;28;20302;-95
2024/02/21 08:45:14;;;;;;;8.00;2.80;;;10.10;99.90;;;;;;4995116;28;20218;-92
2024/02/21 08:47:41;;;;;;;5.57;2.03;;;10.10;99.90;;;;;;5015965;28;20249;-93
2024/02/21 08:50:09;;;;;;;1.23;1.20;;;10.20;99.90;;;;;;5001467;28;20263;-94
2024/02/21 08:52:35;;;;;;;5.83;2.00;;;10.10;99.90;;;;;;5013982;28;20679;-93
2024/02/21 08:55:05;;;;;;;1.90;1.77;;;10.20;99.90;;;;;;4997126;28;20218;-92
2024/02/21 08:57:36;;;;;;;2.10;2.03;;;10.30;99.90;;;;;;5013990;28;20225;-92
2024/02/21 09:00:12;;;;;;;1.60;1.43;;;10.00;99.90;;;;;;4997954;28;20230;-93
2024/02/21 09:02:44;;;;;;;4.47;2.23;;;10.20;99.90;;;;;;5030781;28;20233;-92
2024/02/21 09:05:11;;;;;;;2.90;2.47;;;10.20;99.90;;;;;;5015732;28;20726;-92
2024/02/21 09:07:37;;;;;;;1.50;1.40;;;10.30;99.90;;;;;;5022104;28;20199;-92
2024/02/21 09:10:06;;;;;;;6.83;2.83;;;10.10;99.90;;;;;;5001943;28;20284;-93
2024/02/21 09:12:32;;;;;;;3.17;2.17;;;10.20;99.90;;;;;;5013564;28;20257;-92
2024/02/21 09:14:58;;;;;;;9.03;1.80;;;10.30;99.90;;;;;;5020500;28;20230;-92
2024/02/21 09:17:25;;;;;;;4.40;2.43;;;10.30;99.90;;;;;;5008368;28;20695;-92
2024/02/21 09:19:50;;;;;;;1.03;1.00;;;10.40;99.90;;;;;;5002343;28;20222;-93
2024/02/21 09:22:16;;;;;;;3.07;2.87;;;10.30;99.90;;;;;;5007565;28;20618;-93
2024/02/21 09:24:42;;;;;;;6.13;1.77;;;10.30;99.90;;;;;;5024603;28;20338;-92
2024/02/21 09:27:08;;;;;;;5.03;3.47;;;10.20;99.90;;;;;;5010612;28;20768;-92
2024/02/21 09:29:34;;;;;;;3.57;2.23;;;10.40;99.90;;;;;;5008501;28;20254;-94
2024/02/21 09:32:02;;;;;;;7.80;3.10;;;10.20;99.90;;;;;;5002248;28;20309;-92
2024/02/21 09:34:28;;;;;;;4.97;2.23;;;10.40;99.90;;;;;;5015709;28;20226;-91
2024/02/21 09:36:54;;;;;;;6.60;3.73;;;10.40;99.90;;;;;;5007091;28;20693;-92
2024/02/21 09:39:20;;;;;;;7.87;2.50;;;10.40;99.90;;;;;;5008561;28;20218;-91
2024/02/21 09:41:52;;;;;;;5.63;4.40;;;10.60;99.90;;;;;;5005516;28;20222;-91
2024/02/21 09:44:19;;;;;;;7.20;3.83;;;10.50;99.90;;;;;;5024579;28;20349;-93
2024/02/21 09:46:55;;;;;;;4.17;2.60;;;10.60;99.90;;;;;;5019300;28;20223;-91
2024/02/21 09:49:33;;;;;;;4.80;4.37;;;10.50;99.90;;;;;;5026770;28;20191;-93
2024/02/21 09:52:19;;;;;;;9.37;2.93;;;10.50;99.90;;;;;;5018103;28;20207;-95
2024/02/21 09:54:45;;;;;;;12.53;3.27;;;10.50;99.90;;;;;;5011544;28;20288;-92
2024/02/21 09:57:11;;;;;;;5.13;3.93;;;10.50;99.90;;;;;;4995987;28;20694;-93
2024/02/21 09:59:41;;;;;;;3.00;2.90;;;10.60;99.90;;;;;;5017419;28;20237;-93
2024/02/21 10:02:07;;;;;;;5.13;4.33;;;10.60;99.90;;;;;;5009413;28;20206;-93
2024/02/21 10:04:36;;;;;;;4.03;3.57;;;10.50;99.90;;;;;;5003731;28;20743;-93
2024/02/21 10:07:02;;;;;;;5.10;4.60;;;10.50;99.90;;;;;;5021419;28;20214;-92
2024/02/21 10:09:28;;;;;;;5.47;4.93;;;10.60;99.90;;;;;;4996342;28;20308;-93
2024/02/21 10:12:21;;;;;;;6.13;4.13;;;10.60;99.90;;;;;;5015020;28;20903;-92
2024/02/21 10:14:47;;;;;;;3.27;2.70;;;10.60;99.90;;;;;;4995768;28;20917;-93
2024/02/21 10:17:18;;;;;;;7.57;4.80;;;10.60;99.90;;;;;;5017813;28;20308;-93
2024/02/21 10:19:47;;;;;;;4.27;3.43;;;10.60;99.90;;;;;;5017710;28;20221;-93
2024/02/21 10:22:15;;;;;;;6.33;4.90;;;10.60;99.90;;;;;;5005575;28;20203;-93
2024/02/21 10:24:42;;;;;;;6.20;3.90;;;10.70;99.90;;;;;;5027983;28;20210;-93
2024/02/21 10:27:10;;;;;;;5.87;3.87;;;10.70;99.90;;;;;;5020233;28;20236;-93
2024/02/21 10:29:36;;;;;;;3.63;2.27;;;10.80;99.90;;;;;;5005989;28;20725;-93
2024/02/21 10:32:12;;;;;;;6.37;4.10;;;10.80;99.90;;;;;;5007021;28;20687;-96
2024/02/21 10:34:39;;;;;;;2.93;2.10;;;10.70;99.90;;;;;;5022448;28;20300;-92
2024/02/21 10:37:10;;;;;;;10.83;1.77;;;10.80;99.90;;;;;;5017616;28;20246;-94
2024/02/21 10:39:45;;;;;;;2.93;2.67;;;10.70;99.90;;;;;;5021403;28;20246;-95
2024/02/21 10:42:12;;;;;;;10.70;6.07;;;10.70;99.90;;;;;;4999820;28;20228;-93
2024/02/21 10:44:42;;;;;;;4.03;3.70;;;10.70;99.90;;;;;;5014987;28;20225;-94
2024/02/21 10:47:10;;;;;;;4.90;4.10;;;10.70;99.90;;;;;;5020820;28;20225;-92
2024/02/21 10:49:40;;;;;;;5.47;3.83;;;10.80;99.90;;;;;;5018846;28;20199;-93
2024/02/21 10:52:12;;;;;;;8.57;3.80;;;10.80;99.90;;;;;;4995808;28;20663;-93
2024/02/21 10:54:41;;;;;;;7.20;4.23;;;10.90;99.90;;;;;;5018913;28;20218;-92
2024/02/21 10:57:10;;;;;;;5.20;4.60;;;11.00;99.90;;;;;;5024331;28;21185;-92
2024/02/21 10:59:39;;;;;;;8.70;5.93;;;11.00;99.90;;;;;;5019399;28;20214;-92
2024/02/21 11:02:05;;;;;;;4.17;3.50;;;10.90;99.90;;;;;;5021143;28;20321;-92
2024/02/21 11:04:37;;;;;;;4.80;3.37;;;10.90;99.90;;;;;;5016082;28;20597;-92
2024/02/21 11:07:07;;;;;;;6.13;4.10;;;10.80;99.90;;;;;;5025015;28;20667;-92
2024/02/21 11:09:33;;;;;;;5.47;3.67;;;10.70;99.90;;;;;;5040502;28;20253;-91
2024/02/21 11:12:06;;;;;;;5.00;3.80;;;10.70;99.90;;;;;;5021952;28;20223;-92
2024/02/21 11:14:32;;;;;;;5.83;3.33;;;10.70;99.90;;;;;;5020865;28;20227;-91
2024/02/21 11:16:59;;;;;;;6.93;4.93;;;10.70;99.90;;;;;;5030034;28;20223;-92
2024/02/21 11:19:26;;;;;;;9.10;5.90;;;10.70;99.90;;;;;;5013618;28;20221;-92
2024/02/21 11:21:54;;;;;;;3.20;2.93;;;10.60;99.90;;;;;;5008037;28;20289;-90
2024/02/21 11:24:31;;;;;;;7.33;4.90;;;10.60;99.90;;;;;;5015796;28;20952;-90
2024/02/21 11:27:10;;;;;;;5.70;3.97;;;10.60;99.90;;;;;;5005204;28;20574;-91
2024/02/21 11:29:44;;;;;;;5.17;4.37;;;10.70;99.90;;;;;;5032808;28;20245;-92
2024/02/21 11:32:12;;;;;;;7.37;2.73;;;10.80;99.90;;;;;;5015863;28;20280;-91
2024/02/21 11:34:39;;;;;;;8.93;4.97;;;10.80;99.90;;;;;;5006318;28;20222;-90
2024/02/21 11:37:16;;;;;;;5.30;4.37;;;10.80;99.90;;;;;;5005214;28;20240;-93
2024/02/21 11:39:44;;;;;;;8.70;4.03;;;10.70;99.90;;;;;;5013435;28;20226;-94
2024/02/21 11:42:12;;;;;;;4.53;3.00;;;10.80;99.90;;;;;;5014099;28;20222;-92
2024/02/21 11:44:39;;;;;;;8.53;5.53;;;10.70;99.90;;;;;;5000341;28;20659;-92
2024/02/21 11:47:08;;;;;;;4.90;3.83;;;10.70;99.90;;;;;;5013431;28;20214;-91
2024/02/21 11:49:47;;;;;;;8.33;5.03;;;10.70;99.90;;;;;;5006043;28;20202;-90
2024/02/21 11:52:15;;;;;;;8.60;4.90;;;10.60;99.90;;;;;;5015740;28;20191;-91
2024/02/21 11:54:45;;;;;;;5.07;3.37;;;10.60;99.90;;;;;;4995290;28;20240;-91
2024/02/21 11:57:14;;;;;;;6.00;4.43;;;10.60;99.90;;;;;;4995845;28;20222;-91
2024/02/21 11:59:40;;;;;;;5.70;4.03;;;10.60;99.90;;;;;;4999204;28;20654;-91
2024/02/21 12:02:07;;;;;;;6.00;3.30;;;10.60;99.90;;;;;;5004200;28;20234;-91
2024/02/21 12:04:36;;;;;;;9.30;5.03;;;10.60;99.90;;;;;;5004165;28;20207;-91
2024/02/21 12:07:04;;;;;;;6.17;5.13;;;10.70;99.90;;;;;;4996440;28;20203;-92
2024/02/21 12:09:30;;;;;;;9.07;4.20;;;10.70;99.90;;;;;;5013745;28;20245;-90
2024/02/21 12:12:04;;;;;;;6.07;4.83;;;10.70;99.90;;;;;;5003026;28;20222;-90
2024/02/21 12:14:33;;;;;;;7.40;4.30;;;10.80;99.90;;;;;;5007778;28;20285;-91
2024/02/21 12:17:01;;;;;;;3.73;3.43;;;10.80;99.90;;;;;;4961536;28;20223;-91
2024/02/21 12:19:32;;;;;;;8.37;4.97;;;10.90;99.90;;;;;;4968799;28;20207;-90
2024/02/21 12:22:01;;;;;;;5.67;4.53;;;10.80;99.90;;;;;;5012136;28;20250;-90
2024/02/21 12:24:28;;;;;;;5.63;4.90;;;10.80;99.90;;;;;;5028635;28;20300;-91
2024/02/21 12:26:56;;;;;;;4.20;3.80;;;10.90;99.90;;;;;;5017753;28;20218;-90
2024/02/21 12:29:24;;;;;;;5.33;3.80;;;10.90;99.90;;;;;;5010992;28;20230;-91
2024/02/21 12:31:51;;;;;;;4.47;2.77;;;10.70;99.90;;;;;;4999267;28;20220;-93
2024/02/21 12:34:20;;;;;;;5.53;5.03;;;10.80;99.90;;;;;;4975751;28;20612;-91
2024/02/21 12:36:49;;;;;;;5.50;2.80;;;10.80;99.90;;;;;;4982792;28;20212;-91
2024/02/21 12:39:15;;;;;;;6.50;5.30;;;10.80;99.90;;;;;;4992409;28;20269;-91
2024/02/21 12:41:43;;;;;;;4.83;4.23;;;10.70;99.90;;;;;;4973368;28;20228;-92
2024/02/21 12:44:11;;;;;;;3.17;2.70;;;10.80;99.90;;;;;;4979222;28;20211;-91
2024/02/21 12:46:37;;;;;;;3.40;2.90;;;10.80;99.90;;;;;;5009997;28;20196;-90
2024/02/21 12:49:04;;;;;;;4.17;2.87;;;10.70;99.90;;;;;;4994619;28;20286;-90